sensor_id;sensor_type;location;lat;lon;timestamp;P1;durP1;ratioP1;P2;durP2;ratioP2
72524;SDS011;60547;48.502;8.996;2023-04-25T00:02:05;5.22;;;2.20;;
72524;SDS011;60547;48.502;8.996;2023-04-25T00:04:32;5.80;;;2.60;;
72524;SDS011;60547;48.502;8.996;2023-04-25T00:06:59;4.43;;;2.55;;
72524;SDS011;60547;48.502;8.996;2023-04-25T00:09:27;5.55;;;2.50;;
72524;SDS011;60547;48.502;8.996;2023-04-25T00:11:52;4.88;;;2.40;;
72524;SDS011;60547;48.502;8.996;2023-04-25T00:14:18;5.93;;;2.22;;
72524;SDS011;60547;48.502;8.996;2023-04-25T00:16:44;5.18;;;2.70;;
72524;SDS011;60547;48.502;8.996;2023-04-25T00:19:09;5.75;;;2.67;;
72524;SDS011;60547;48.502;8.996;2023-04-25T00:21:35;4.90;;;2.33;;
72524;SDS011;60547;48.502;8.996;2023-04-25T00:24:02;5.10;;;2.50;;
72524;SDS011;60547;48.502;8.996;2023-04-25T00:26:28;4.57;;;2.60;;
72524;SDS011;60547;48.502;8.996;2023-04-25T00:28:54;5.78;;;2.50;;
72524;SDS011;60547;48.502;8.996;2023-04-25T00:31:19;5.70;;;2.63;;
72524;SDS011;60547;48.502;8.996;2023-04-25T00:33:45;5.95;;;2.50;;
72524;SDS011;60547;48.502;8.996;2023-04-25T00:36:10;4.53;;;2.28;;
72524;SDS011;60547;48.502;8.996;2023-04-25T00:38:36;5.65;;;2.47;;
72524;SDS011;60547;48.502;8.996;2023-04-25T00:41:04;6.30;;;2.50;;
72524;SDS011;60547;48.502;8.996;2023-04-25T00:43:31;5.32;;;2.30;;
72524;SDS011;60547;48.502;8.996;2023-04-25T00:45:57;4.97;;;2.50;;
72524;SDS011;60547;48.502;8.996;2023-04-25T00:48:25;5.30;;;2.45;;
72524;SDS011;60547;48.502;8.996;2023-04-25T00:50:52;5.90;;;2.72;;
72524;SDS011;60547;48.502;8.996;2023-04-25T00:53:21;7.60;;;2.40;;
72524;SDS011;60547;48.502;8.996;2023-04-25T00:55:48;7.00;;;3.95;;
72524;SDS011;60547;48.502;8.996;2023-04-25T00:58:19;5.68;;;2.40;;
72524;SDS011;60547;48.502;8.996;2023-04-25T01:00:46;5.78;;;2.17;;
72524;SDS011;60547;48.502;8.996;2023-04-25T01:03:13;5.00;;;2.60;;
72524;SDS011;60547;48.502;8.996;2023-04-25T01:05:42;4.68;;;2.50;;
72524;SDS011;60547;48.502;8.996;2023-04-25T01:08:08;5.25;;;2.45;;
72524;SDS011;60547;48.502;8.996;2023-04-25T01:10:34;7.03;;;2.90;;
72524;SDS011;60547;48.502;8.996;2023-04-25T01:12:59;7.53;;;3.20;;
72524;SDS011;60547;48.502;8.996;2023-04-25T01:15:25;5.38;;;2.95;;
72524;SDS011;60547;48.502;8.996;2023-04-25T01:17:50;4.75;;;2.67;;
72524;SDS011;60547;48.502;8.996;2023-04-25T01:20:16;5.65;;;2.70;;
72524;SDS011;60547;48.502;8.996;2023-04-25T01:22:42;5.22;;;2.75;;
72524;SDS011;60547;48.502;8.996;2023-04-25T01:25:08;4.82;;;2.40;;
72524;SDS011;60547;48.502;8.996;2023-04-25T01:27:35;5.57;;;2.80;;
72524;SDS011;60547;48.502;8.996;2023-04-25T01:30:02;5.97;;;2.50;;
72524;SDS011;60547;48.502;8.996;2023-04-25T01:32:28;4.85;;;2.58;;
72524;SDS011;60547;48.502;8.996;2023-04-25T01:35:03;4.07;;;2.50;;
72524;SDS011;60547;48.502;8.996;2023-04-25T01:37:38;5.80;;;2.50;;
72524;SDS011;60547;48.502;8.996;2023-04-25T01:40:04;6.20;;;2.63;;
72524;SDS011;60547;48.502;8.996;2023-04-25T01:42:31;4.60;;;2.65;;
72524;SDS011;60547;48.502;8.996;2023-04-25T01:44:57;5.90;;;2.40;;
72524;SDS011;60547;48.502;8.996;2023-04-25T01:47:23;5.13;;;2.35;;
72524;SDS011;60547;48.502;8.996;2023-04-25T01:49:49;6.07;;;2.88;;
72524;SDS011;60547;48.502;8.996;2023-04-25T01:52:14;4.72;;;2.50;;
72524;SDS011;60547;48.502;8.996;2023-04-25T01:54:40;5.70;;;2.50;;
72524;SDS011;60547;48.502;8.996;2023-04-25T01:57:09;6.13;;;2.72;;
72524;SDS011;60547;48.502;8.996;2023-04-25T01:59:37;4.70;;;2.20;;
72524;SDS011;60547;48.502;8.996;2023-04-25T02:02:03;4.95;;;2.50;;
72524;SDS011;60547;48.502;8.996;2023-04-25T02:04:29;5.03;;;2.30;;
72524;SDS011;60547;48.502;8.996;2023-04-25T02:06:55;5.15;;;2.30;;
72524;SDS011;60547;48.502;8.996;2023-04-25T02:09:21;4.50;;;2.30;;
72524;SDS011;60547;48.502;8.996;2023-04-25T02:11:47;4.68;;;2.42;;
72524;SDS011;60547;48.502;8.996;2023-04-25T02:14:12;4.90;;;2.47;;
72524;SDS011;60547;48.502;8.996;2023-04-25T02:16:38;4.70;;;2.30;;
72524;SDS011;60547;48.502;8.996;2023-04-25T02:19:03;6.00;;;3.28;;
72524;SDS011;60547;48.502;8.996;2023-04-25T02:21:30;5.68;;;2.10;;
72524;SDS011;60547;48.502;8.996;2023-04-25T02:23:56;5.70;;;2.20;;
72524;SDS011;60547;48.502;8.996;2023-04-25T02:26:21;4.07;;;2.42;;
72524;SDS011;60547;48.502;8.996;2023-04-25T02:28:49;4.63;;;2.28;;
72524;SDS011;60547;48.502;8.996;2023-04-25T02:31:15;6.20;;;2.72;;
72524;SDS011;60547;48.502;8.996;2023-04-25T02:33:41;6.57;;;3.08;;
72524;SDS011;60547;48.502;8.996;2023-04-25T02:36:07;4.50;;;2.58;;
72524;SDS011;60547;48.502;8.996;2023-04-25T02:38:32;5.20;;;2.40;;
72524;SDS011;60547;48.502;8.996;2023-04-25T02:40:58;4.25;;;2.75;;
72524;SDS011;60547;48.502;8.996;2023-04-25T02:43:24;6.07;;;2.53;;
72524;SDS011;60547;48.502;8.996;2023-04-25T02:45:49;4.03;;;2.60;;
72524;SDS011;60547;48.502;8.996;2023-04-25T02:48:14;6.38;;;2.63;;
72524;SDS011;60547;48.502;8.996;2023-04-25T02:50:40;4.75;;;2.60;;
72524;SDS011;60547;48.502;8.996;2023-04-25T02:53:05;3.92;;;2.45;;
72524;SDS011;60547;48.502;8.996;2023-04-25T02:55:31;4.25;;;2.47;;
72524;SDS011;60547;48.502;8.996;2023-04-25T02:57:56;5.65;;;3.03;;
72524;SDS011;60547;48.502;8.996;2023-04-25T03:00:22;5.68;;;2.72;;
72524;SDS011;60547;48.502;8.996;2023-04-25T03:02:48;6.40;;;3.50;;
72524;SDS011;60547;48.502;8.996;2023-04-25T03:05:13;5.65;;;3.20;;
72524;SDS011;60547;48.502;8.996;2023-04-25T03:07:39;4.55;;;2.83;;
72524;SDS011;60547;48.502;8.996;2023-04-25T03:10:08;6.45;;;2.80;;
72524;SDS011;60547;48.502;8.996;2023-04-25T03:12:33;4.93;;;2.67;;
72524;SDS011;60547;48.502;8.996;2023-04-25T03:14:59;6.45;;;2.65;;
72524;SDS011;60547;48.502;8.996;2023-04-25T03:17:24;6.03;;;2.50;;
72524;SDS011;60547;48.502;8.996;2023-04-25T03:19:50;4.60;;;2.47;;
72524;SDS011;60547;48.502;8.996;2023-04-25T03:22:17;4.80;;;2.90;;
72524;SDS011;60547;48.502;8.996;2023-04-25T03:24:43;5.10;;;2.53;;
72524;SDS011;60547;48.502;8.996;2023-04-25T03:27:08;4.45;;;2.45;;
72524;SDS011;60547;48.502;8.996;2023-04-25T03:29:34;4.22;;;2.13;;
72524;SDS011;60547;48.502;8.996;2023-04-25T03:31:59;6.05;;;2.55;;
72524;SDS011;60547;48.502;8.996;2023-04-25T03:34:25;4.78;;;1.95;;
72524;SDS011;60547;48.502;8.996;2023-04-25T03:36:51;4.80;;;1.90;;
72524;SDS011;60547;48.502;8.996;2023-04-25T03:39:16;3.85;;;1.77;;
72524;SDS011;60547;48.502;8.996;2023-04-25T03:41:42;4.32;;;1.83;;
72524;SDS011;60547;48.502;8.996;2023-04-25T03:44:07;6.18;;;2.25;;
72524;SDS011;60547;48.502;8.996;2023-04-25T03:46:36;3.42;;;1.75;;
72524;SDS011;60547;48.502;8.996;2023-04-25T03:49:01;3.78;;;2.05;;
72524;SDS011;60547;48.502;8.996;2023-04-25T03:51:27;6.60;;;2.25;;
72524;SDS011;60547;48.502;8.996;2023-04-25T03:53:52;5.00;;;2.22;;
72524;SDS011;60547;48.502;8.996;2023-04-25T03:56:18;3.38;;;1.92;;
72524;SDS011;60547;48.502;8.996;2023-04-25T03:58:44;4.45;;;1.95;;
72524;SDS011;60547;48.502;8.996;2023-04-25T04:01:09;5.18;;;2.20;;
72524;SDS011;60547;48.502;8.996;2023-04-25T04:03:35;6.20;;;2.60;;
72524;SDS011;60547;48.502;8.996;2023-04-25T04:06:04;5.53;;;2.40;;
72524;SDS011;60547;48.502;8.996;2023-04-25T04:08:31;4.70;;;2.00;;
72524;SDS011;60547;48.502;8.996;2023-04-25T04:10:57;4.63;;;2.00;;
72524;SDS011;60547;48.502;8.996;2023-04-25T04:13:25;3.97;;;2.17;;
72524;SDS011;60547;48.502;8.996;2023-04-25T04:15:51;4.57;;;2.03;;
72524;SDS011;60547;48.502;8.996;2023-04-25T04:18:16;5.13;;;2.03;;
72524;SDS011;60547;48.502;8.996;2023-04-25T04:20:42;4.30;;;2.53;;
72524;SDS011;60547;48.502;8.996;2023-04-25T04:23:07;5.82;;;2.75;;
72524;SDS011;60547;48.502;8.996;2023-04-25T04:25:33;6.35;;;3.30;;
72524;SDS011;60547;48.502;8.996;2023-04-25T04:27:59;6.75;;;3.90;;
72524;SDS011;60547;48.502;8.996;2023-04-25T04:30:26;6.10;;;3.08;;
72524;SDS011;60547;48.502;8.996;2023-04-25T04:32:54;6.13;;;3.22;;
72524;SDS011;60547;48.502;8.996;2023-04-25T04:35:23;5.50;;;3.30;;
72524;SDS011;60547;48.502;8.996;2023-04-25T04:37:49;5.07;;;2.55;;
72524;SDS011;60547;48.502;8.996;2023-04-25T04:40:15;4.25;;;2.08;;
72524;SDS011;60547;48.502;8.996;2023-04-25T04:42:42;4.78;;;2.33;;
72524;SDS011;60547;48.502;8.996;2023-04-25T04:45:08;5.25;;;2.30;;
72524;SDS011;60547;48.502;8.996;2023-04-25T04:47:35;4.55;;;2.10;;
72524;SDS011;60547;48.502;8.996;2023-04-25T04:50:02;5.18;;;2.17;;
72524;SDS011;60547;48.502;8.996;2023-04-25T04:52:29;6.07;;;2.38;;
72524;SDS011;60547;48.502;8.996;2023-04-25T04:54:55;6.05;;;2.78;;
72524;SDS011;60547;48.502;8.996;2023-04-25T04:57:21;5.80;;;3.85;;
72524;SDS011;60547;48.502;8.996;2023-04-25T04:59:47;7.15;;;2.78;;
72524;SDS011;60547;48.502;8.996;2023-04-25T05:02:12;3.95;;;2.17;;
72524;SDS011;60547;48.502;8.996;2023-04-25T05:04:38;5.80;;;2.50;;
72524;SDS011;60547;48.502;8.996;2023-04-25T05:07:03;4.30;;;2.28;;
72524;SDS011;60547;48.502;8.996;2023-04-25T05:09:29;4.07;;;2.10;;
72524;SDS011;60547;48.502;8.996;2023-04-25T05:11:54;6.22;;;2.20;;
72524;SDS011;60547;48.502;8.996;2023-04-25T05:14:20;6.25;;;2.67;;
72524;SDS011;60547;48.502;8.996;2023-04-25T05:16:46;5.65;;;2.70;;
72524;SDS011;60547;48.502;8.996;2023-04-25T05:19:12;6.15;;;2.83;;
72524;SDS011;60547;48.502;8.996;2023-04-25T05:21:38;6.68;;;2.83;;
72524;SDS011;60547;48.502;8.996;2023-04-25T05:24:03;5.97;;;2.88;;
72524;SDS011;60547;48.502;8.996;2023-04-25T05:26:29;6.75;;;3.22;;
72524;SDS011;60547;48.502;8.996;2023-04-25T05:28:58;6.35;;;3.00;;
72524;SDS011;60547;48.502;8.996;2023-04-25T05:31:25;6.00;;;3.08;;
72524;SDS011;60547;48.502;8.996;2023-04-25T05:33:50;5.55;;;2.67;;
72524;SDS011;60547;48.502;8.996;2023-04-25T05:36:18;6.18;;;2.40;;
72524;SDS011;60547;48.502;8.996;2023-04-25T05:38:43;5.78;;;2.55;;
72524;SDS011;60547;48.502;8.996;2023-04-25T05:41:09;4.80;;;2.22;;
72524;SDS011;60547;48.502;8.996;2023-04-25T05:43:35;5.18;;;2.47;;
72524;SDS011;60547;48.502;8.996;2023-04-25T05:46:00;6.30;;;2.25;;
72524;SDS011;60547;48.502;8.996;2023-04-25T05:48:26;4.57;;;1.95;;
72524;SDS011;60547;48.502;8.996;2023-04-25T05:50:51;3.72;;;1.90;;
72524;SDS011;60547;48.502;8.996;2023-04-25T05:53:17;4.63;;;2.20;;
72524;SDS011;60547;48.502;8.996;2023-04-25T05:55:43;4.55;;;2.15;;
72524;SDS011;60547;48.502;8.996;2023-04-25T05:58:09;6.05;;;2.83;;
72524;SDS011;60547;48.502;8.996;2023-04-25T06:00:34;6.95;;;3.20;;
72524;SDS011;60547;48.502;8.996;2023-04-25T06:03:00;5.18;;;2.33;;
72524;SDS011;60547;48.502;8.996;2023-04-25T06:05:26;4.88;;;2.92;;
72524;SDS011;60547;48.502;8.996;2023-04-25T06:07:52;6.72;;;3.10;;
72524;SDS011;60547;48.502;8.996;2023-04-25T06:10:17;5.75;;;3.05;;
72524;SDS011;60547;48.502;8.996;2023-04-25T06:12:43;4.90;;;2.38;;
72524;SDS011;60547;48.502;8.996;2023-04-25T06:15:09;6.10;;;2.30;;
72524;SDS011;60547;48.502;8.996;2023-04-25T06:17:35;4.90;;;2.25;;
72524;SDS011;60547;48.502;8.996;2023-04-25T06:20:01;5.13;;;1.80;;
72524;SDS011;60547;48.502;8.996;2023-04-25T06:22:27;4.30;;;1.80;;
72524;SDS011;60547;48.502;8.996;2023-04-25T06:24:52;4.05;;;1.90;;
72524;SDS011;60547;48.502;8.996;2023-04-25T06:27:18;3.92;;;2.00;;
72524;SDS011;60547;48.502;8.996;2023-04-25T06:29:43;3.83;;;2.10;;
72524;SDS011;60547;48.502;8.996;2023-04-25T06:32:09;3.38;;;2.00;;
72524;SDS011;60547;48.502;8.996;2023-04-25T06:34:34;4.22;;;2.13;;
72524;SDS011;60547;48.502;8.996;2023-04-25T06:37:00;5.85;;;2.25;;
72524;SDS011;60547;48.502;8.996;2023-04-25T06:39:25;4.72;;;2.10;;
72524;SDS011;60547;48.502;8.996;2023-04-25T06:41:51;3.88;;;1.88;;
72524;SDS011;60547;48.502;8.996;2023-04-25T06:44:16;3.70;;;2.15;;
72524;SDS011;60547;48.502;8.996;2023-04-25T06:46:41;6.15;;;2.20;;
72524;SDS011;60547;48.502;8.996;2023-04-25T06:49:07;4.47;;;2.10;;
72524;SDS011;60547;48.502;8.996;2023-04-25T06:51:32;3.63;;;1.60;;
72524;SDS011;60547;48.502;8.996;2023-04-25T06:53:58;4.68;;;1.98;;
72524;SDS011;60547;48.502;8.996;2023-04-25T06:56:24;4.38;;;2.00;;
72524;SDS011;60547;48.502;8.996;2023-04-25T06:58:49;3.47;;;1.80;;
72524;SDS011;60547;48.502;8.996;2023-04-25T07:01:15;4.47;;;1.90;;
72524;SDS011;60547;48.502;8.996;2023-04-25T07:03:42;3.40;;;1.52;;
72524;SDS011;60547;48.502;8.996;2023-04-25T07:06:07;3.90;;;1.88;;
72524;SDS011;60547;48.502;8.996;2023-04-25T07:08:33;3.40;;;1.95;;
72524;SDS011;60547;48.502;8.996;2023-04-25T07:10:58;5.18;;;1.83;;
72524;SDS011;60547;48.502;8.996;2023-04-25T07:13:24;4.53;;;2.20;;
72524;SDS011;60547;48.502;8.996;2023-04-25T07:15:49;4.05;;;1.80;;
72524;SDS011;60547;48.502;8.996;2023-04-25T07:18:15;5.03;;;2.05;;
72524;SDS011;60547;48.502;8.996;2023-04-25T07:20:41;4.65;;;1.98;;
72524;SDS011;60547;48.502;8.996;2023-04-25T07:23:06;4.13;;;1.88;;
72524;SDS011;60547;48.502;8.996;2023-04-25T07:25:32;4.55;;;2.00;;
72524;SDS011;60547;48.502;8.996;2023-04-25T07:27:57;5.47;;;2.03;;
72524;SDS011;60547;48.502;8.996;2023-04-25T07:30:23;3.35;;;1.70;;
72524;SDS011;60547;48.502;8.996;2023-04-25T07:32:48;4.82;;;1.83;;
72524;SDS011;60547;48.502;8.996;2023-04-25T07:35:15;4.05;;;2.10;;
72524;SDS011;60547;48.502;8.996;2023-04-25T07:37:41;5.20;;;2.47;;
72524;SDS011;60547;48.502;8.996;2023-04-25T07:40:07;5.60;;;2.70;;
72524;SDS011;60547;48.502;8.996;2023-04-25T07:42:34;5.20;;;2.72;;
72524;SDS011;60547;48.502;8.996;2023-04-25T07:45:00;5.13;;;2.25;;
72524;SDS011;60547;48.502;8.996;2023-04-25T07:47:26;6.18;;;3.00;;
72524;SDS011;60547;48.502;8.996;2023-04-25T07:49:51;5.15;;;2.45;;
72524;SDS011;60547;48.502;8.996;2023-04-25T07:52:17;4.30;;;2.38;;
72524;SDS011;60547;48.502;8.996;2023-04-25T07:54:43;5.13;;;2.25;;
72524;SDS011;60547;48.502;8.996;2023-04-25T07:57:08;5.03;;;2.40;;
72524;SDS011;60547;48.502;8.996;2023-04-25T07:59:34;4.72;;;2.20;;
72524;SDS011;60547;48.502;8.996;2023-04-25T08:02:00;4.53;;;2.45;;
72524;SDS011;60547;48.502;8.996;2023-04-25T08:04:26;4.78;;;2.42;;
72524;SDS011;60547;48.502;8.996;2023-04-25T08:06:52;4.25;;;2.13;;
72524;SDS011;60547;48.502;8.996;2023-04-25T08:09:19;4.15;;;2.20;;
72524;SDS011;60547;48.502;8.996;2023-04-25T08:11:45;4.00;;;2.00;;
72524;SDS011;60547;48.502;8.996;2023-04-25T08:14:11;4.28;;;2.17;;
72524;SDS011;60547;48.502;8.996;2023-04-25T08:16:37;4.68;;;2.20;;
72524;SDS011;60547;48.502;8.996;2023-04-25T08:19:02;4.57;;;1.88;;
72524;SDS011;60547;48.502;8.996;2023-04-25T08:21:28;4.53;;;2.00;;
72524;SDS011;60547;48.502;8.996;2023-04-25T08:23:54;4.22;;;2.35;;
72524;SDS011;60547;48.502;8.996;2023-04-25T08:26:19;4.82;;;2.22;;
72524;SDS011;60547;48.502;8.996;2023-04-25T08:28:45;7.95;;;2.47;;
72524;SDS011;60547;48.502;8.996;2023-04-25T08:31:11;4.85;;;2.47;;
72524;SDS011;60547;48.502;8.996;2023-04-25T08:33:37;4.07;;;2.58;;
72524;SDS011;60547;48.502;8.996;2023-04-25T08:36:02;6.82;;;2.38;;
72524;SDS011;60547;48.502;8.996;2023-04-25T08:38:28;4.28;;;2.25;;
72524;SDS011;60547;48.502;8.996;2023-04-25T08:40:53;4.00;;;1.85;;
72524;SDS011;60547;48.502;8.996;2023-04-25T08:43:20;4.15;;;2.28;;
72524;SDS011;60547;48.502;8.996;2023-04-25T08:45:46;6.47;;;3.03;;
72524;SDS011;60547;48.502;8.996;2023-04-25T08:48:13;5.60;;;2.22;;
72524;SDS011;60547;48.502;8.996;2023-04-25T08:50:49;4.45;;;2.30;;
72524;SDS011;60547;48.502;8.996;2023-04-25T08:55:45;4.45;;;2.60;;
72524;SDS011;60547;48.502;8.996;2023-04-25T08:58:12;6.20;;;3.08;;
72524;SDS011;60547;48.502;8.996;2023-04-25T09:00:38;4.30;;;2.92;;
72524;SDS011;60547;48.502;8.996;2023-04-25T09:03:04;6.70;;;3.00;;
72524;SDS011;60547;48.502;8.996;2023-04-25T09:05:31;5.97;;;3.10;;
72524;SDS011;60547;48.502;8.996;2023-04-25T09:07:58;5.43;;;2.90;;
72524;SDS011;60547;48.502;8.996;2023-04-25T09:10:23;6.15;;;3.25;;
72524;SDS011;60547;48.502;8.996;2023-04-25T09:13:08;5.93;;;3.00;;
72524;SDS011;60547;48.502;8.996;2023-04-25T09:15:52;6.05;;;2.47;;
72524;SDS011;60547;48.502;8.996;2023-04-25T09:18:26;4.82;;;2.60;;
72524;SDS011;60547;48.502;8.996;2023-04-25T09:20:52;4.80;;;2.50;;
72524;SDS011;60547;48.502;8.996;2023-04-25T09:23:19;3.72;;;2.05;;
72524;SDS011;60547;48.502;8.996;2023-04-25T09:25:50;4.65;;;2.10;;
72524;SDS011;60547;48.502;8.996;2023-04-25T09:28:22;4.57;;;2.25;;
72524;SDS011;60547;48.502;8.996;2023-04-25T09:30:49;3.95;;;2.25;;
72524;SDS011;60547;48.502;8.996;2023-04-25T09:33:15;4.13;;;2.17;;
72524;SDS011;60547;48.502;8.996;2023-04-25T09:35:41;4.28;;;1.92;;
72524;SDS011;60547;48.502;8.996;2023-04-25T09:38:11;5.55;;;2.03;;
72524;SDS011;60547;48.502;8.996;2023-04-25T09:40:41;5.13;;;2.45;;
72524;SDS011;60547;48.502;8.996;2023-04-25T09:43:20;5.97;;;2.47;;
72524;SDS011;60547;48.502;8.996;2023-04-25T09:45:46;3.33;;;1.90;;
72524;SDS011;60547;48.502;8.996;2023-04-25T09:48:16;2.92;;;1.55;;
72524;SDS011;60547;48.502;8.996;2023-04-25T09:53:40;1.83;;;1.00;;
72524;SDS011;60547;48.502;8.996;2023-04-25T09:56:09;2.90;;;1.20;;
72524;SDS011;60547;48.502;8.996;2023-04-25T09:58:37;1.55;;;0.90;;
72524;SDS011;60547;48.502;8.996;2023-04-25T10:01:04;1.58;;;1.02;;
72524;SDS011;60547;48.502;8.996;2023-04-25T10:03:33;1.83;;;1.08;;
72524;SDS011;60547;48.502;8.996;2023-04-25T10:06:05;2.55;;;1.23;;
72524;SDS011;60547;48.502;8.996;2023-04-25T10:08:34;3.60;;;1.20;;
72524;SDS011;60547;48.502;8.996;2023-04-25T10:11:02;2.15;;;1.25;;
72524;SDS011;60547;48.502;8.996;2023-04-25T10:13:30;2.20;;;1.00;;
72524;SDS011;60547;48.502;8.996;2023-04-25T10:16:00;2.60;;;1.40;;
72524;SDS011;60547;48.502;8.996;2023-04-25T10:20:54;6.35;;;1.95;;
72524;SDS011;60547;48.502;8.996;2023-04-25T10:23:21;2.45;;;1.20;;
72524;SDS011;60547;48.502;8.996;2023-04-25T10:25:47;2.72;;;0.70;;
72524;SDS011;60547;48.502;8.996;2023-04-25T10:28:14;1.92;;;0.90;;
72524;SDS011;60547;48.502;8.996;2023-04-25T10:30:56;2.92;;;1.00;;
72524;SDS011;60547;48.502;8.996;2023-04-25T10:33:30;2.60;;;1.00;;
72524;SDS011;60547;48.502;8.996;2023-04-25T10:35:58;2.92;;;1.27;;
72524;SDS011;60547;48.502;8.996;2023-04-25T10:38:33;2.05;;;1.13;;
72524;SDS011;60547;48.502;8.996;2023-04-25T10:41:05;2.05;;;1.05;;
72524;SDS011;60547;48.502;8.996;2023-04-25T10:46:13;2.85;;;1.35;;
72524;SDS011;60547;48.502;8.996;2023-04-25T10:48:43;3.42;;;1.30;;
72524;SDS011;60547;48.502;8.996;2023-04-25T10:51:21;3.58;;;1.30;;
72524;SDS011;60547;48.502;8.996;2023-04-25T10:54:07;3.53;;;1.20;;
72524;SDS011;60547;48.502;8.996;2023-04-25T10:56:37;2.72;;;1.00;;
72524;SDS011;60547;48.502;8.996;2023-04-25T10:59:06;3.08;;;0.98;;
72524;SDS011;60547;48.502;8.996;2023-04-25T11:01:44;3.42;;;1.70;;
72524;SDS011;60547;48.502;8.996;2023-04-25T11:04:30;2.50;;;1.20;;
72524;SDS011;60547;48.502;8.996;2023-04-25T11:09:51;1.98;;;1.00;;
72524;SDS011;60547;48.502;8.996;2023-04-25T11:12:17;4.38;;;1.38;;
72524;SDS011;60547;48.502;8.996;2023-04-25T11:14:43;1.88;;;1.00;;
72524;SDS011;60547;48.502;8.996;2023-04-25T11:17:08;1.73;;;0.93;;
72524;SDS011;60547;48.502;8.996;2023-04-25T11:19:35;3.65;;;1.13;;
72524;SDS011;60547;48.502;8.996;2023-04-25T11:22:01;1.83;;;0.95;;
72524;SDS011;60547;48.502;8.996;2023-04-25T11:24:28;2.55;;;1.10;;
72524;SDS011;60547;48.502;8.996;2023-04-25T11:26:58;1.35;;;0.82;;
72524;SDS011;60547;48.502;8.996;2023-04-25T11:29:27;1.95;;;1.05;;
72524;SDS011;60547;48.502;8.996;2023-04-25T11:31:54;1.30;;;0.68;;
72524;SDS011;60547;48.502;8.996;2023-04-25T11:34:23;2.47;;;1.05;;
72524;SDS011;60547;48.502;8.996;2023-04-25T11:36:50;1.33;;;0.80;;
72524;SDS011;60547;48.502;8.996;2023-04-25T11:39:17;2.38;;;0.80;;
72524;SDS011;60547;48.502;8.996;2023-04-25T11:41:46;1.15;;;0.85;;
72524;SDS011;60547;48.502;8.996;2023-04-25T11:44:16;2.38;;;0.90;;
72524;SDS011;60547;48.502;8.996;2023-04-25T11:46:44;2.25;;;0.80;;
72524;SDS011;60547;48.502;8.996;2023-04-25T11:49:10;2.80;;;1.52;;
72524;SDS011;60547;48.502;8.996;2023-04-25T11:51:40;2.20;;;1.20;;
72524;SDS011;60547;48.502;8.996;2023-04-25T11:54:09;1.50;;;0.90;;
72524;SDS011;60547;48.502;8.996;2023-04-25T11:56:35;1.52;;;0.90;;
72524;SDS011;60547;48.502;8.996;2023-04-25T11:59:05;1.50;;;0.80;;
72524;SDS011;60547;48.502;8.996;2023-04-25T12:01:34;1.38;;;0.90;;
72524;SDS011;60547;48.502;8.996;2023-04-25T12:04:15;6.88;;;1.30;;
72524;SDS011;60547;48.502;8.996;2023-04-25T12:06:41;2.63;;;1.40;;
72524;SDS011;60547;48.502;8.996;2023-04-25T12:09:09;2.33;;;1.20;;
72524;SDS011;60547;48.502;8.996;2023-04-25T12:11:42;1.83;;;1.00;;
72524;SDS011;60547;48.502;8.996;2023-04-25T12:14:12;1.60;;;0.90;;
72524;SDS011;60547;48.502;8.996;2023-04-25T12:16:47;2.28;;;1.10;;
72524;SDS011;60547;48.502;8.996;2023-04-25T12:19:14;1.58;;;0.85;;
72524;SDS011;60547;48.502;8.996;2023-04-25T12:21:40;1.77;;;0.80;;
72524;SDS011;60547;48.502;8.996;2023-04-25T12:24:10;1.77;;;0.80;;
72524;SDS011;60547;48.502;8.996;2023-04-25T12:26:47;1.98;;;1.00;;
72524;SDS011;60547;48.502;8.996;2023-04-25T12:29:21;2.55;;;1.00;;
72524;SDS011;60547;48.502;8.996;2023-04-25T12:31:48;1.63;;;0.82;;
72524;SDS011;60547;48.502;8.996;2023-04-25T12:34:14;2.58;;;1.10;;
72524;SDS011;60547;48.502;8.996;2023-04-25T12:36:40;1.95;;;0.98;;
72524;SDS011;60547;48.502;8.996;2023-04-25T12:39:06;6.85;;;3.22;;
72524;SDS011;60547;48.502;8.996;2023-04-25T12:41:32;9.23;;;5.03;;
72524;SDS011;60547;48.502;8.996;2023-04-25T12:43:58;4.97;;;2.25;;
72524;SDS011;60547;48.502;8.996;2023-04-25T12:46:23;3.75;;;2.10;;
72524;SDS011;60547;48.502;8.996;2023-04-25T12:48:49;3.35;;;1.70;;
72524;SDS011;60547;48.502;8.996;2023-04-25T12:51:15;2.60;;;1.20;;
72524;SDS011;60547;48.502;8.996;2023-04-25T12:53:40;2.08;;;1.08;;
72524;SDS011;60547;48.502;8.996;2023-04-25T12:56:09;1.85;;;1.02;;
72524;SDS011;60547;48.502;8.996;2023-04-25T12:58:35;2.45;;;1.10;;
72524;SDS011;60547;48.502;8.996;2023-04-25T13:01:00;2.15;;;1.10;;
72524;SDS011;60547;48.502;8.996;2023-04-25T13:03:26;1.58;;;0.90;;
72524;SDS011;60547;48.502;8.996;2023-04-25T13:05:51;1.75;;;0.90;;
72524;SDS011;60547;48.502;8.996;2023-04-25T13:08:18;2.78;;;1.05;;
72524;SDS011;60547;48.502;8.996;2023-04-25T13:10:44;2.28;;;0.93;;
72524;SDS011;60547;48.502;8.996;2023-04-25T13:13:09;2.60;;;1.00;;
72524;SDS011;60547;48.502;8.996;2023-04-25T13:15:35;1.95;;;0.88;;
72524;SDS011;60547;48.502;8.996;2023-04-25T13:18:02;3.40;;;1.48;;
72524;SDS011;60547;48.502;8.996;2023-04-25T13:20:29;2.13;;;1.05;;
72524;SDS011;60547;48.502;8.996;2023-04-25T13:22:55;2.28;;;1.00;;
72524;SDS011;60547;48.502;8.996;2023-04-25T13:25:21;2.33;;;1.20;;
72524;SDS011;60547;48.502;8.996;2023-04-25T13:27:47;4.80;;;2.38;;
72524;SDS011;60547;48.502;8.996;2023-04-25T13:30:12;3.10;;;1.73;;
72524;SDS011;60547;48.502;8.996;2023-04-25T13:32:39;1.70;;;0.98;;
72524;SDS011;60547;48.502;8.996;2023-04-25T13:35:06;2.55;;;1.23;;
72524;SDS011;60547;48.502;8.996;2023-04-25T13:37:34;4.20;;;1.50;;
72524;SDS011;60547;48.502;8.996;2023-04-25T13:40:00;2.75;;;1.40;;
72524;SDS011;60547;48.502;8.996;2023-04-25T13:42:26;2.40;;;1.27;;
72524;SDS011;60547;48.502;8.996;2023-04-25T13:44:51;3.20;;;1.50;;
72524;SDS011;60547;48.502;8.996;2023-04-25T13:47:17;3.83;;;1.73;;
72524;SDS011;60547;48.502;8.996;2023-04-25T13:49:42;6.70;;;4.47;;
72524;SDS011;60547;48.502;8.996;2023-04-25T13:52:08;4.10;;;2.00;;
72524;SDS011;60547;48.502;8.996;2023-04-25T13:54:33;3.55;;;1.70;;
72524;SDS011;60547;48.502;8.996;2023-04-25T13:56:58;6.50;;;3.00;;
72524;SDS011;60547;48.502;8.996;2023-04-25T13:59:25;4.57;;;1.80;;
72524;SDS011;60547;48.502;8.996;2023-04-25T14:01:51;4.30;;;1.90;;
72524;SDS011;60547;48.502;8.996;2023-04-25T14:04:16;3.42;;;1.92;;
72524;SDS011;60547;48.502;8.996;2023-04-25T14:06:42;3.38;;;1.88;;
72524;SDS011;60547;48.502;8.996;2023-04-25T14:09:08;3.20;;;1.70;;
72524;SDS011;60547;48.502;8.996;2023-04-25T14:11:38;3.25;;;1.90;;
72524;SDS011;60547;48.502;8.996;2023-04-25T14:14:04;4.30;;;2.28;;
72524;SDS011;60547;48.502;8.996;2023-04-25T14:16:30;5.93;;;3.33;;
72524;SDS011;60547;48.502;8.996;2023-04-25T14:18:59;4.38;;;2.30;;
72524;SDS011;60547;48.502;8.996;2023-04-25T14:21:25;3.88;;;2.13;;
72524;SDS011;60547;48.502;8.996;2023-04-25T14:23:52;4.13;;;1.90;;
72524;SDS011;60547;48.502;8.996;2023-04-25T14:26:17;4.03;;;2.10;;
72524;SDS011;60547;48.502;8.996;2023-04-25T14:28:43;3.53;;;2.00;;
72524;SDS011;60547;48.502;8.996;2023-04-25T14:31:09;4.13;;;2.10;;
72524;SDS011;60547;48.502;8.996;2023-04-25T14:33:34;4.53;;;2.30;;
72524;SDS011;60547;48.502;8.996;2023-04-25T14:36:00;4.45;;;2.20;;
72524;SDS011;60547;48.502;8.996;2023-04-25T14:38:25;4.30;;;2.38;;
72524;SDS011;60547;48.502;8.996;2023-04-25T14:40:52;4.75;;;2.20;;
72524;SDS011;60547;48.502;8.996;2023-04-25T14:43:18;4.68;;;2.08;;
72524;SDS011;60547;48.502;8.996;2023-04-25T14:45:44;4.10;;;2.33;;
72524;SDS011;60547;48.502;8.996;2023-04-25T14:48:10;3.92;;;2.28;;
72524;SDS011;60547;48.502;8.996;2023-04-25T14:50:36;5.70;;;2.45;;
72524;SDS011;60547;48.502;8.996;2023-04-25T14:53:01;4.95;;;2.40;;
72524;SDS011;60547;48.502;8.996;2023-04-25T14:55:27;4.18;;;2.33;;
72524;SDS011;60547;48.502;8.996;2023-04-25T14:57:53;5.57;;;2.70;;
72524;SDS011;60547;48.502;8.996;2023-04-25T15:00:19;5.18;;;2.58;;